sensor_id;sensor_type;location;lat;lon;timestamp;P1;durP1;ratioP1;P2;durP2;ratioP2
72584;SDS011;60618;40.084;32.908;2023-04-01T00:01:12;17.08;;;9.18;;
72584;SDS011;60618;40.084;32.908;2023-04-01T00:03:41;17.93;;;9.37;;
72584;SDS011;60618;40.084;32.908;2023-04-01T00:06:09;20.13;;;9.98;;
72584;SDS011;60618;40.084;32.908;2023-04-01T00:08:41;20.45;;;10.25;;
72584;SDS011;60618;40.084;32.908;2023-04-01T00:11:08;20.65;;;10.15;;
72584;SDS011;60618;40.084;32.908;2023-04-01T00:13:35;22.00;;;10.52;;
72584;SDS011;60618;40.084;32.908;2023-04-01T00:16:02;15.87;;;7.70;;
72584;SDS011;60618;40.084;32.908;2023-04-01T00:18:45;15.43;;;7.82;;
72584;SDS011;60618;40.084;32.908;2023-04-01T00:21:13;19.20;;;8.95;;
72584;SDS011;60618;40.084;32.908;2023-04-01T00:23:40;21.90;;;10.77;;
72584;SDS011;60618;40.084;32.908;2023-04-01T00:26:07;21.08;;;10.65;;
72584;SDS011;60618;40.084;32.908;2023-04-01T00:28:34;27.20;;;12.70;;
72584;SDS011;60618;40.084;32.908;2023-04-01T00:31:06;23.17;;;11.38;;
72584;SDS011;60618;40.084;32.908;2023-04-01T00:33:34;21.10;;;10.20;;
72584;SDS011;60618;40.084;32.908;2023-04-01T00:36:11;17.35;;;9.13;;
72584;SDS011;60618;40.084;32.908;2023-04-01T00:38:39;21.85;;;8.55;;
72584;SDS011;60618;40.084;32.908;2023-04-01T00:41:06;19.20;;;9.33;;
72584;SDS011;60618;40.084;32.908;2023-04-01T00:43:33;23.30;;;10.23;;
72584;SDS011;60618;40.084;32.908;2023-04-01T00:46:00;21.35;;;10.85;;
72584;SDS011;60618;40.084;32.908;2023-04-01T00:48:29;21.63;;;10.25;;
72584;SDS011;60618;40.084;32.908;2023-04-01T00:51:04;19.17;;;9.95;;
72584;SDS011;60618;40.084;32.908;2023-04-01T00:53:43;19.13;;;11.00;;
72584;SDS011;60618;40.084;32.908;2023-04-01T00:56:21;20.05;;;10.20;;
72584;SDS011;60618;40.084;32.908;2023-04-01T00:59:00;19.30;;;10.60;;
72584;SDS011;60618;40.084;32.908;2023-04-01T01:01:30;21.60;;;10.35;;
72584;SDS011;60618;40.084;32.908;2023-04-01T01:03:59;21.38;;;11.07;;
72584;SDS011;60618;40.084;32.908;2023-04-01T01:07:03;21.60;;;11.73;;
72584;SDS011;60618;40.084;32.908;2023-04-01T01:12:40;20.13;;;10.77;;
72584;SDS011;60618;40.084;32.908;2023-04-01T01:15:16;23.33;;;11.27;;
72584;SDS011;60618;40.084;32.908;2023-04-01T01:18:04;20.42;;;11.20;;
72584;SDS011;60618;40.084;32.908;2023-04-01T01:35:21;21.43;;;10.70;;
72584;SDS011;60618;40.084;32.908;2023-04-01T01:38:10;18.38;;;10.15;;
72584;SDS011;60618;40.084;32.908;2023-04-01T01:40:41;22.05;;;11.00;;
72584;SDS011;60618;40.084;32.908;2023-04-01T01:43:12;21.23;;;11.48;;
72584;SDS011;60618;40.084;32.908;2023-04-01T01:46:05;19.58;;;10.10;;
72584;SDS011;60618;40.084;32.908;2023-04-01T01:48:34;22.10;;;11.50;;
72584;SDS011;60618;40.084;32.908;2023-04-01T01:51:06;21.95;;;11.23;;
72584;SDS011;60618;40.084;32.908;2023-04-01T01:53:33;20.05;;;11.02;;
72584;SDS011;60618;40.084;32.908;2023-04-01T01:56:02;21.67;;;10.60;;
72584;SDS011;60618;40.084;32.908;2023-04-01T02:01:05;21.40;;;10.67;;
72584;SDS011;60618;40.084;32.908;2023-04-01T02:03:35;23.00;;;10.98;;
72584;SDS011;60618;40.084;32.908;2023-04-01T02:06:05;20.23;;;10.32;;
72584;SDS011;60618;40.084;32.908;2023-04-01T02:08:36;19.15;;;10.27;;
72584;SDS011;60618;40.084;32.908;2023-04-01T02:11:14;21.00;;;10.82;;
72584;SDS011;60618;40.084;32.908;2023-04-01T02:13:53;23.87;;;11.40;;
72584;SDS011;60618;40.084;32.908;2023-04-01T02:16:35;19.67;;;11.00;;
72584;SDS011;60618;40.084;32.908;2023-04-01T02:19:07;19.98;;;10.40;;
72584;SDS011;60618;40.084;32.908;2023-04-01T02:21:37;20.23;;;11.23;;
72584;SDS011;60618;40.084;32.908;2023-04-01T02:24:08;27.85;;;13.35;;
72584;SDS011;60618;40.084;32.908;2023-04-01T02:26:39;25.73;;;13.33;;
72584;SDS011;60618;40.084;32.908;2023-04-01T02:29:07;21.85;;;11.20;;
72584;SDS011;60618;40.084;32.908;2023-04-01T02:31:38;25.38;;;12.43;;
72584;SDS011;60618;40.084;32.908;2023-04-01T02:34:06;24.52;;;12.13;;
72584;SDS011;60618;40.084;32.908;2023-04-01T02:36:34;25.65;;;12.43;;
72584;SDS011;60618;40.084;32.908;2023-04-01T02:39:02;23.37;;;10.77;;
72584;SDS011;60618;40.084;32.908;2023-04-01T02:41:29;19.73;;;10.43;;
72584;SDS011;60618;40.084;32.908;2023-04-01T02:43:56;18.83;;;9.98;;
72584;SDS011;60618;40.084;32.908;2023-04-01T02:46:24;21.45;;;10.68;;
72584;SDS011;60618;40.084;32.908;2023-04-01T02:48:51;25.25;;;12.60;;
72584;SDS011;60618;40.084;32.908;2023-04-01T02:51:18;26.80;;;13.10;;
72584;SDS011;60618;40.084;32.908;2023-04-01T02:53:45;27.83;;;13.70;;
72584;SDS011;60618;40.084;32.908;2023-04-01T02:56:12;25.52;;;13.63;;
72584;SDS011;60618;40.084;32.908;2023-04-01T02:58:38;28.50;;;14.55;;
72584;SDS011;60618;40.084;32.908;2023-04-01T03:01:05;25.13;;;12.70;;
72584;SDS011;60618;40.084;32.908;2023-04-01T03:03:32;23.97;;;12.13;;
72584;SDS011;60618;40.084;32.908;2023-04-01T03:06:04;21.40;;;10.93;;
72584;SDS011;60618;40.084;32.908;2023-04-01T03:08:35;25.90;;;12.77;;
72584;SDS011;60618;40.084;32.908;2023-04-01T03:11:02;22.17;;;11.43;;
72584;SDS011;60618;40.084;32.908;2023-04-01T03:13:29;22.83;;;11.63;;
72584;SDS011;60618;40.084;32.908;2023-04-01T03:15:56;20.70;;;9.87;;
72584;SDS011;60618;40.084;32.908;2023-04-01T03:18:23;26.35;;;13.90;;
72584;SDS011;60618;40.084;32.908;2023-04-01T03:20:50;27.67;;;14.15;;
72584;SDS011;60618;40.084;32.908;2023-04-01T03:23:17;30.90;;;14.98;;
72584;SDS011;60618;40.084;32.908;2023-04-01T03:25:45;30.00;;;15.65;;
72584;SDS011;60618;40.084;32.908;2023-04-01T03:28:11;35.40;;;17.43;;
72584;SDS011;60618;40.084;32.908;2023-04-01T03:30:39;36.80;;;18.67;;
72584;SDS011;60618;40.084;32.908;2023-04-01T03:33:06;32.55;;;16.33;;
72584;SDS011;60618;40.084;32.908;2023-04-01T03:35:33;30.00;;;15.32;;
72584;SDS011;60618;40.084;32.908;2023-04-01T03:38:00;34.53;;;16.58;;
72584;SDS011;60618;40.084;32.908;2023-04-01T03:40:27;34.73;;;16.90;;
72584;SDS011;60618;40.084;32.908;2023-04-01T03:42:54;30.48;;;15.32;;
72584;SDS011;60618;40.084;32.908;2023-04-01T03:45:21;35.05;;;16.23;;
72584;SDS011;60618;40.084;32.908;2023-04-01T03:47:48;36.00;;;17.02;;
72584;SDS011;60618;40.084;32.908;2023-04-01T03:50:15;36.15;;;16.75;;
72584;SDS011;60618;40.084;32.908;2023-04-01T03:52:42;29.50;;;15.13;;
72584;SDS011;60618;40.084;32.908;2023-04-01T03:55:08;32.90;;;15.50;;
72584;SDS011;60618;40.084;32.908;2023-04-01T03:57:35;24.90;;;11.98;;
72584;SDS011;60618;40.084;32.908;2023-04-01T04:00:03;25.27;;;13.05;;
72584;SDS011;60618;40.084;32.908;2023-04-01T04:02:30;30.98;;;14.50;;
72584;SDS011;60618;40.084;32.908;2023-04-01T04:04:57;31.93;;;14.90;;
72584;SDS011;60618;40.084;32.908;2023-04-01T04:07:24;32.90;;;16.23;;
72584;SDS011;60618;40.084;32.908;2023-04-01T04:09:50;33.50;;;17.02;;
72584;SDS011;60618;40.084;32.908;2023-04-01T04:12:17;28.65;;;14.57;;
72584;SDS011;60618;40.084;32.908;2023-04-01T04:14:44;27.60;;;13.93;;
72584;SDS011;60618;40.084;32.908;2023-04-01T04:17:11;33.93;;;17.27;;
72584;SDS011;60618;40.084;32.908;2023-04-01T04:19:38;29.77;;;15.05;;
72584;SDS011;60618;40.084;32.908;2023-04-01T04:22:05;31.40;;;14.75;;
72584;SDS011;60618;40.084;32.908;2023-04-01T04:24:33;25.77;;;13.43;;
72584;SDS011;60618;40.084;32.908;2023-04-01T04:27:01;30.50;;;16.17;;
72584;SDS011;60618;40.084;32.908;2023-04-01T04:29:28;30.27;;;16.23;;
72584;SDS011;60618;40.084;32.908;2023-04-01T04:31:55;30.08;;;15.13;;
72584;SDS011;60618;40.084;32.908;2023-04-01T04:34:22;26.25;;;13.85;;
72584;SDS011;60618;40.084;32.908;2023-04-01T04:36:49;29.65;;;15.45;;
72584;SDS011;60618;40.084;32.908;2023-04-01T04:39:16;30.08;;;14.68;;
72584;SDS011;60618;40.084;32.908;2023-04-01T04:41:43;25.93;;;14.07;;
72584;SDS011;60618;40.084;32.908;2023-04-01T04:44:10;26.33;;;14.38;;
72584;SDS011;60618;40.084;32.908;2023-04-01T04:46:37;26.17;;;14.65;;
72584;SDS011;60618;40.084;32.908;2023-04-01T04:49:04;27.75;;;14.75;;
72584;SDS011;60618;40.084;32.908;2023-04-01T04:51:31;24.98;;;14.20;;
72584;SDS011;60618;40.084;32.908;2023-04-01T04:53:57;26.30;;;14.73;;
72584;SDS011;60618;40.084;32.908;2023-04-01T04:56:24;26.23;;;13.77;;
72584;SDS011;60618;40.084;32.908;2023-04-01T04:58:52;28.23;;;14.63;;
72584;SDS011;60618;40.084;32.908;2023-04-01T05:01:19;26.40;;;14.07;;
72584;SDS011;60618;40.084;32.908;2023-04-01T05:03:46;25.50;;;14.57;;
72584;SDS011;60618;40.084;32.908;2023-04-01T05:06:14;28.10;;;14.87;;
72584;SDS011;60618;40.084;32.908;2023-04-01T05:08:42;30.73;;;16.33;;
72584;SDS011;60618;40.084;32.908;2023-04-01T05:11:13;33.30;;;15.52;;
72584;SDS011;60618;40.084;32.908;2023-04-01T05:13:42;29.92;;;17.45;;
72584;SDS011;60618;40.084;32.908;2023-04-01T05:16:13;27.10;;;15.77;;
72584;SDS011;60618;40.084;32.908;2023-04-01T05:18:42;30.83;;;15.37;;
72584;SDS011;60618;40.084;32.908;2023-04-01T05:21:10;31.08;;;16.55;;
72584;SDS011;60618;40.084;32.908;2023-04-01T05:23:38;27.17;;;15.40;;
72584;SDS011;60618;40.084;32.908;2023-04-01T05:26:06;28.38;;;15.85;;
72584;SDS011;60618;40.084;32.908;2023-04-01T05:28:35;27.35;;;15.70;;
72584;SDS011;60618;40.084;32.908;2023-04-01T05:31:02;26.50;;;15.10;;
72584;SDS011;60618;40.084;32.908;2023-04-01T05:33:30;29.75;;;15.68;;
72584;SDS011;60618;40.084;32.908;2023-04-01T05:36:05;30.10;;;16.63;;
72584;SDS011;60618;40.084;32.908;2023-04-01T05:38:36;28.67;;;16.13;;
72584;SDS011;60618;40.084;32.908;2023-04-01T05:41:04;30.08;;;17.50;;
72584;SDS011;60618;40.084;32.908;2023-04-01T05:43:30;29.37;;;17.03;;
72584;SDS011;60618;40.084;32.908;2023-04-01T05:45:57;28.83;;;17.45;;
72584;SDS011;60618;40.084;32.908;2023-04-01T05:48:24;32.28;;;17.38;;
72584;SDS011;60618;40.084;32.908;2023-04-01T05:50:51;30.48;;;16.25;;
72584;SDS011;60618;40.084;32.908;2023-04-01T05:53:18;33.72;;;17.45;;
72584;SDS011;60618;40.084;32.908;2023-04-01T05:55:45;29.17;;;16.00;;
72584;SDS011;60618;40.084;32.908;2023-04-01T05:58:12;27.75;;;16.50;;
72584;SDS011;60618;40.084;32.908;2023-04-01T06:00:39;27.67;;;16.15;;
72584;SDS011;60618;40.084;32.908;2023-04-01T06:03:05;29.67;;;16.75;;
72584;SDS011;60618;40.084;32.908;2023-04-01T06:05:50;31.73;;;18.35;;
72584;SDS011;60618;40.084;32.908;2023-04-01T06:08:20;31.10;;;17.33;;
72584;SDS011;60618;40.084;32.908;2023-04-01T06:45:26;20.90;;;12.23;;
72584;SDS011;60618;40.084;32.908;2023-04-01T06:48:27;23.05;;;11.80;;
72584;SDS011;60618;40.084;32.908;2023-04-01T06:50:55;21.13;;;10.40;;
72584;SDS011;60618;40.084;32.908;2023-04-01T06:56:04;17.85;;;9.15;;
72584;SDS011;60618;40.084;32.908;2023-04-01T06:58:42;16.98;;;9.00;;
72584;SDS011;60618;40.084;32.908;2023-04-01T07:01:19;16.33;;;9.13;;
72584;SDS011;60618;40.084;32.908;2023-04-01T07:03:57;16.73;;;8.57;;
72584;SDS011;60618;40.084;32.908;2023-04-01T07:06:32;14.27;;;6.78;;
72584;SDS011;60618;40.084;32.908;2023-04-01T07:09:14;12.18;;;6.60;;
72584;SDS011;60618;40.084;32.908;2023-04-01T07:11:47;11.95;;;5.78;;
72584;SDS011;60618;40.084;32.908;2023-04-01T07:14:22;13.07;;;5.70;;
72584;SDS011;60618;40.084;32.908;2023-04-01T07:17:00;11.07;;;6.67;;
72584;SDS011;60618;40.084;32.908;2023-04-01T07:23:08;9.95;;;5.55;;
72584;SDS011;60618;40.084;32.908;2023-04-01T07:25:22;11.18;;;5.55;;
72584;SDS011;60618;40.084;32.908;2023-04-01T07:27:56;10.02;;;5.63;;
72584;SDS011;60618;40.084;32.908;2023-04-01T07:30:29;10.23;;;5.20;;
72584;SDS011;60618;40.084;32.908;2023-04-01T07:34:20;10.90;;;5.60;;
72584;SDS011;60618;40.084;32.908;2023-04-01T07:42:55;10.27;;;5.90;;
72584;SDS011;60618;40.084;32.908;2023-04-01T07:45:33;10.77;;;6.10;;
72584;SDS011;60618;40.084;32.908;2023-04-01T07:48:43;11.10;;;5.97;;
72584;SDS011;60618;40.084;32.908;2023-04-01T07:51:21;13.00;;;6.53;;
72584;SDS011;60618;40.084;32.908;2023-04-01T07:59:58;11.73;;;5.77;;
72584;SDS011;60618;40.084;32.908;2023-04-01T08:07:41;11.32;;;5.22;;
72584;SDS011;60618;40.084;32.908;2023-04-01T08:10:22;11.07;;;6.13;;
72584;SDS011;60618;40.084;32.908;2023-04-01T08:15:37;13.13;;;5.80;;
72584;SDS011;60618;40.084;32.908;2023-04-01T08:18:30;12.10;;;6.40;;
72584;SDS011;60618;40.084;32.908;2023-04-01T08:21:23;11.50;;;6.30;;
72584;SDS011;60618;40.084;32.908;2023-04-01T08:23:56;11.18;;;5.97;;
72584;SDS011;60618;40.084;32.908;2023-04-01T08:29:05;10.57;;;5.80;;
72584;SDS011;60618;40.084;32.908;2023-04-01T08:31:40;14.32;;;6.78;;
72584;SDS011;60618;40.084;32.908;2023-04-01T08:34:38;10.65;;;6.20;;
72584;SDS011;60618;40.084;32.908;2023-04-01T08:51:43;12.00;;;6.10;;
72584;SDS011;60618;40.084;32.908;2023-04-01T08:57:32;15.88;;;6.80;;
72584;SDS011;60618;40.084;32.908;2023-04-01T09:00:23;11.73;;;6.45;;
72584;SDS011;60618;40.084;32.908;2023-04-01T09:03:08;14.95;;;6.80;;
72584;SDS011;60618;40.084;32.908;2023-04-01T09:05:44;13.05;;;6.75;;
72584;SDS011;60618;40.084;32.908;2023-04-01T09:25:32;10.20;;;6.30;;
72584;SDS011;60618;40.084;32.908;2023-04-01T09:28:28;9.93;;;5.40;;
72584;SDS011;60618;40.084;32.908;2023-04-01T09:31:11;11.30;;;6.05;;
72584;SDS011;60618;40.084;32.908;2023-04-01T09:34:51;11.18;;;5.60;;
72584;SDS011;60618;40.084;32.908;2023-04-01T09:39:54;10.32;;;5.13;;
72584;SDS011;60618;40.084;32.908;2023-04-01T09:42:41;11.32;;;5.80;;
72584;SDS011;60618;40.084;32.908;2023-04-01T09:51:15;12.43;;;6.63;;
72584;SDS011;60618;40.084;32.908;2023-04-01T10:13:03;14.95;;;5.65;;
72584;SDS011;60618;40.084;32.908;2023-04-01T10:16:00;12.20;;;5.40;;
72584;SDS011;60618;40.084;32.908;2023-04-01T10:27:06;7.20;;;3.78;;
72584;SDS011;60618;40.084;32.908;2023-04-01T10:29:55;6.80;;;3.50;;
72584;SDS011;60618;40.084;32.908;2023-04-01T10:41:10;10.05;;;3.42;;
72584;SDS011;60618;40.084;32.908;2023-04-01T11:01:20;8.23;;;2.90;;
72584;SDS011;60618;40.084;32.908;2023-04-01T11:12:42;7.03;;;2.90;;
72584;SDS011;60618;40.084;32.908;2023-04-01T11:30:29;6.07;;;2.40;;
72584;SDS011;60618;40.084;32.908;2023-04-01T11:33:01;6.28;;;2.40;;
72584;SDS011;60618;40.084;32.908;2023-04-01T11:43:58;7.60;;;2.70;;
72584;SDS011;60618;40.084;32.908;2023-04-01T11:49:45;6.50;;;2.45;;
72584;SDS011;60618;40.084;32.908;2023-04-01T12:06:22;6.90;;;2.75;;
72584;SDS011;60618;40.084;32.908;2023-04-01T12:09:04;9.15;;;2.80;;
72584;SDS011;60618;40.084;32.908;2023-04-01T12:14:36;6.70;;;2.80;;
72584;SDS011;60618;40.084;32.908;2023-04-01T12:20:26;8.07;;;2.60;;
72584;SDS011;60618;40.084;32.908;2023-04-01T12:23:21;7.10;;;2.92;;
72584;SDS011;60618;40.084;32.908;2023-04-01T12:35:44;6.90;;;2.60;;
72584;SDS011;60618;40.084;32.908;2023-04-01T12:46:54;10.45;;;2.88;;
72584;SDS011;60618;40.084;32.908;2023-04-01T12:52:58;7.05;;;2.30;;
72584;SDS011;60618;40.084;32.908;2023-04-01T12:57:34;6.60;;;2.42;;
72584;SDS011;60618;40.084;32.908;2023-04-01T13:00:51;8.52;;;2.55;;
72584;SDS011;60618;40.084;32.908;2023-04-01T13:11:34;8.05;;;2.40;;
72584;SDS011;60618;40.084;32.908;2023-04-01T13:14:20;7.50;;;1.95;;
72584;SDS011;60618;40.084;32.908;2023-04-01T13:17:22;5.45;;;1.90;;
72584;SDS011;60618;40.084;32.908;2023-04-01T13:20:11;6.50;;;2.45;;
72584;SDS011;60618;40.084;32.908;2023-04-01T13:23:02;5.80;;;2.37;;
72584;SDS011;60618;40.084;32.908;2023-04-01T13:42:45;8.45;;;2.05;;
72584;SDS011;60618;40.084;32.908;2023-04-01T13:45:29;7.38;;;2.17;;
72584;SDS011;60618;40.084;32.908;2023-04-01T13:56:29;8.95;;;1.80;;
72584;SDS011;60618;40.084;32.908;2023-04-01T13:59:10;6.57;;;2.08;;
72584;SDS011;60618;40.084;32.908;2023-04-01T14:07:16;7.30;;;2.10;;
72584;SDS011;60618;40.084;32.908;2023-04-01T14:09:49;6.28;;;2.40;;
72584;SDS011;60618;40.084;32.908;2023-04-01T14:12:29;7.05;;;2.40;;
72584;SDS011;60618;40.084;32.908;2023-04-01T14:31:31;14.47;;;6.43;;
72584;SDS011;60618;40.084;32.908;2023-04-01T14:50:16;8.95;;;4.03;;
72584;SDS011;60618;40.084;32.908;2023-04-01T14:52:49;13.05;;;6.30;;
72584;SDS011;60618;40.084;32.908;2023-04-01T14:55:34;7.88;;;3.40;;
72584;SDS011;60618;40.084;32.908;2023-04-01T14:58:14;10.20;;;2.20;;
72584;SDS011;60618;40.084;32.908;2023-04-01T15:00:50;6.78;;;2.50;;
72584;SDS011;60618;40.084;32.908;2023-04-01T15:17:55;10.18;;;2.95;;
72584;SDS011;60618;40.084;32.908;2023-04-01T15:20:43;13.85;;;4.10;;
72584;SDS011;60618;40.084;32.908;2023-04-01T15:23:31;7.57;;;2.60;;
72584;SDS011;60618;40.084;32.908;2023-04-01T15:26:11;13.03;;;4.77;;
72584;SDS011;60618;40.084;32.908;2023-04-01T15:40:31;8.40;;;3.03;;
72584;SDS011;60618;40.084;32.908;2023-04-01T15:43:30;7.35;;;2.92;;
72584;SDS011;60618;40.084;32.908;2023-04-01T15:46:29;10.10;;;3.10;;
72584;SDS011;60618;40.084;32.908;2023-04-01T15:51:47;10.65;;;2.40;;
72584;SDS011;60618;40.084;32.908;2023-04-01T16:03:17;8.00;;;2.72;;
72584;SDS011;60618;40.084;32.908;2023-04-01T16:06:17;11.23;;;3.35;;
72584;SDS011;60618;40.084;32.908;2023-04-01T16:11:55;12.43;;;4.50;;
72584;SDS011;60618;40.084;32.908;2023-04-01T16:19:52;13.30;;;4.05;;
72584;SDS011;60618;40.084;32.908;2023-04-01T16:22:46;13.00;;;3.40;;
72584;SDS011;60618;40.084;32.908;2023-04-01T16:25:20;9.55;;;3.03;;
72584;SDS011;60618;40.084;32.908;2023-04-01T16:39:37;11.80;;;3.33;;
72584;SDS011;60618;40.084;32.908;2023-04-01T16:44:50;9.75;;;3.58;;
72584;SDS011;60618;40.084;32.908;2023-04-01T16:47:29;10.35;;;4.20;;
72584;SDS011;60618;40.084;32.908;2023-04-01T16:49:59;9.23;;;3.50;;
72584;SDS011;60618;40.084;32.908;2023-04-01T16:58:26;56.40;;;21.02;;
72584;SDS011;60618;40.084;32.908;2023-04-01T17:01:23;43.83;;;15.18;;
72584;SDS011;60618;40.084;32.908;2023-04-01T17:04:00;30.47;;;9.60;;
72584;SDS011;60618;40.084;32.908;2023-04-01T17:12:19;13.38;;;4.70;;
72584;SDS011;60618;40.084;32.908;2023-04-01T17:17:51;13.90;;;3.90;;
72584;SDS011;60618;40.084;32.908;2023-04-01T17:20:29;11.90;;;4.22;;
72584;SDS011;60618;40.084;32.908;2023-04-01T17:23:19;10.85;;;4.75;;
72584;SDS011;60618;40.084;32.908;2023-04-01T17:26:02;12.63;;;5.35;;
72584;SDS011;60618;40.084;32.908;2023-04-01T17:33:58;13.77;;;5.10;;
72584;SDS011;60618;40.084;32.908;2023-04-01T17:42:14;11.70;;;4.80;;
72584;SDS011;60618;40.084;32.908;2023-04-01T17:44:49;13.27;;;4.93;;
72584;SDS011;60618;40.084;32.908;2023-04-01T17:47:41;12.77;;;5.00;;
72584;SDS011;60618;40.084;32.908;2023-04-01T17:50:23;12.57;;;5.35;;
72584;SDS011;60618;40.084;32.908;2023-04-01T17:55:46;12.48;;;6.05;;
72584;SDS011;60618;40.084;32.908;2023-04-01T18:12:21;18.03;;;6.70;;
72584;SDS011;60618;40.084;32.908;2023-04-01T18:18:17;12.85;;;6.00;;
72584;SDS011;60618;40.084;32.908;2023-04-01T18:23:44;15.18;;;6.70;;
72584;SDS011;60618;40.084;32.908;2023-04-01T18:26:31;13.43;;;6.03;;
72584;SDS011;60618;40.084;32.908;2023-04-01T18:32:00;15.40;;;6.22;;
72584;SDS011;60618;40.084;32.908;2023-04-01T18:37:36;11.85;;;5.22;;
72584;SDS011;60618;40.084;32.908;2023-04-01T18:40:19;11.27;;;5.93;;
72584;SDS011;60618;40.084;32.908;2023-04-01T18:45:59;12.18;;;5.07;;
72584;SDS011;60618;40.084;32.908;2023-04-01T18:51:26;12.52;;;5.75;;
72584;SDS011;60618;40.084;32.908;2023-04-01T18:54:41;12.13;;;4.80;;
72584;SDS011;60618;40.084;32.908;2023-04-01T18:57:16;10.05;;;4.15;;
72584;SDS011;60618;40.084;32.908;2023-04-01T18:59:55;9.85;;;4.95;;
72584;SDS011;60618;40.084;32.908;2023-04-01T19:02:36;13.10;;;4.72;;
72584;SDS011;60618;40.084;32.908;2023-04-01T19:05:30;12.13;;;5.88;;
72584;SDS011;60618;40.084;32.908;2023-04-01T19:16:21;9.20;;;3.83;;
72584;SDS011;60618;40.084;32.908;2023-04-01T19:21:42;8.47;;;3.50;;
72584;SDS011;60618;40.084;32.908;2023-04-01T19:29:50;13.02;;;4.28;;
72584;SDS011;60618;40.084;32.908;2023-04-01T19:32:40;12.80;;;4.55;;
72584;SDS011;60618;40.084;32.908;2023-04-01T19:38:23;16.77;;;6.32;;
72584;SDS011;60618;40.084;32.908;2023-04-01T19:40:57;14.73;;;5.68;;
72584;SDS011;60618;40.084;32.908;2023-04-01T19:43:44;13.60;;;5.53;;
72584;SDS011;60618;40.084;32.908;2023-04-01T19:55:06;11.88;;;4.55;;
72584;SDS011;60618;40.084;32.908;2023-04-01T20:00:34;10.25;;;2.72;;
72584;SDS011;60618;40.084;32.908;2023-04-01T20:03:15;8.40;;;2.50;;
72584;SDS011;60618;40.084;32.908;2023-04-01T20:05:53;7.78;;;2.70;;
72584;SDS011;60618;40.084;32.908;2023-04-01T20:16:59;8.83;;;3.00;;
72584;SDS011;60618;40.084;32.908;2023-04-01T20:19:28;8.02;;;2.80;;
72584;SDS011;60618;40.084;32.908;2023-04-01T20:22:02;6.50;;;2.47;;
72584;SDS011;60618;40.084;32.908;2023-04-01T20:24:37;8.05;;;2.75;;
72584;SDS011;60618;40.084;32.908;2023-04-01T20:52:55;8.85;;;2.42;;
72584;SDS011;60618;40.084;32.908;2023-04-01T21:01:35;8.60;;;2.72;;
72584;SDS011;60618;40.084;32.908;2023-04-01T21:10:25;12.20;;;3.92;;
72584;SDS011;60618;40.084;32.908;2023-04-01T21:13:06;10.03;;;3.67;;
72584;SDS011;60618;40.084;32.908;2023-04-01T21:21:27;9.10;;;3.33;;
72584;SDS011;60618;40.084;32.908;2023-04-01T21:34:49;11.38;;;3.22;;
72584;SDS011;60618;40.084;32.908;2023-04-01T21:37:45;9.18;;;3.15;;
72584;SDS011;60618;40.084;32.908;2023-04-01T21:40:46;13.17;;;3.70;;
72584;SDS011;60618;40.084;32.908;2023-04-01T21:52:29;8.65;;;3.20;;
72584;SDS011;60618;40.084;32.908;2023-04-01T22:00:52;10.05;;;3.33;;
72584;SDS011;60618;40.084;32.908;2023-04-01T22:03:31;8.00;;;3.20;;
72584;SDS011;60618;40.084;32.908;2023-04-01T22:06:24;12.02;;;3.90;;
72584;SDS011;60618;40.084;32.908;2023-04-01T22:09:08;11.23;;;3.60;;
72584;SDS011;60618;40.084;32.908;2023-04-01T22:16:58;14.20;;;3.83;;
72584;SDS011;60618;40.084;32.908;2023-04-01T22:22:25;6.67;;;3.03;;
72584;SDS011;60618;40.084;32.908;2023-04-01T22:25:37;10.88;;;3.38;;
72584;SDS011;60618;40.084;32.908;2023-04-01T22:28:12;9.60;;;2.90;;
72584;SDS011;60618;40.084;32.908;2023-04-01T22:30:51;10.52;;;3.28;;
72584;SDS011;60618;40.084;32.908;2023-04-01T22:41:53;9.45;;;3.60;;
72584;SDS011;60618;40.084;32.908;2023-04-01T22:44:33;8.65;;;2.95;;
72584;SDS011;60618;40.084;32.908;2023-04-01T22:47:21;6.60;;;3.13;;
72584;SDS011;60618;40.084;32.908;2023-04-01T22:50:22;8.63;;;3.03;;
72584;SDS011;60618;40.084;32.908;2023-04-01T22:55:53;10.88;;;3.10;;
72584;SDS011;60618;40.084;32.908;2023-04-01T22:58:36;8.85;;;3.10;;
72584;SDS011;60618;40.084;32.908;2023-04-01T23:01:17;10.48;;;3.30;;
72584;SDS011;60618;40.084;32.908;2023-04-01T23:03:55;11.47;;;3.50;;
72584;SDS011;60618;40.084;32.908;2023-04-01T23:06:28;9.65;;;3.65;;
72584;SDS011;60618;40.084;32.908;2023-04-01T23:09:47;7.22;;;3.10;;
72584;SDS011;60618;40.084;32.908;2023-04-01T23:12:03;8.73;;;2.90;;
72584;SDS011;60618;40.084;32.908;2023-04-01T23:14:52;9.52;;;3.05;;
72584;SDS011;60618;40.084;32.908;2023-04-01T23:28:47;8.70;;;3.30;;
72584;SDS011;60618;40.084;32.908;2023-04-01T23:33:55;10.00;;;3.55;;
72584;SDS011;60618;40.084;32.908;2023-04-01T23:36:27;11.07;;;3.42;;
72584;SDS011;60618;40.084;32.908;2023-04-01T23:38:59;10.63;;;3.72;;
72584;SDS011;60618;40.084;32.908;2023-04-01T23:41:44;7.90;;;3.15;;
72584;SDS011;60618;40.084;32.908;2023-04-01T23:44:12;11.60;;;3.50;;
72584;SDS011;60618;40.084;32.908;2023-04-01T23:46:41;9.82;;;3.67;;
72584;SDS011;60618;40.084;32.908;2023-04-01T23:49:16;8.02;;;3.25;;
72584;SDS011;60618;40.084;32.908;2023-04-01T23:51:59;9.35;;;3.28;;
72584;SDS011;60618;40.084;32.908;2023-04-01T23:57:17;9.13;;;3.60;;
